Time;durP1;ratioP1;P1;durP2;ratioP2;P2;SDS_P1;SDS_P2;PMS_P1;PMS_P2;Temp;Humidity;BMP_temperature;BMP_pressure;BME280_temperature;BME280_humidity;BME280_pressure;Samples;Min_cycle;Max_cycle;Signal;HPM_P1;HPM_P2
2022/06/25 00:02:23;;;;;;;16.67;12.83;;;;;;;19.00;100.00;98862.41;5052558;28;20362;-86
2022/06/25 00:07:33;;;;;;;17.27;12.70;;;;;;;18.64;100.00;98841.81;5052801;28;20176;-87
2022/06/25 00:09:58;;;;;;;16.07;12.13;;;;;;;18.58;100.00;98798.22;5050790;28;20221;-87
2022/06/25 00:12:33;;;;;;;15.70;12.30;;;;;;;18.49;100.00;98780.22;5052540;28;20174;-87
2022/06/25 00:15:04;;;;;;;17.80;11.97;;;;;;;18.25;100.00;98694.75;5052224;28;20157;-86
2022/06/25 00:17:30;;;;;;;14.57;11.27;;;;;;;17.54;100.00;98548.63;5052108;28;20169;-86
2022/06/25 00:19:56;;;;;;;15.37;11.40;;;;;;;18.17;100.00;98646.91;5051172;28;20192;-86
2022/06/25 00:22:21;;;;;;;16.27;11.23;;;;;;;19.23;100.00;98824.78;5052243;28;20170;-86
2022/06/25 00:24:46;;;;;;;17.00;10.80;;;;;;;17.42;100.00;98511.88;5051927;28;20240;-87
2022/06/25 00:27:12;;;;;;;13.97;11.33;;;;;;;19.02;100.00;98788.00;5052129;28;20172;-87
2022/06/25 00:29:37;;;;;;;14.80;11.57;;;;;;;17.68;100.00;98569.13;5052124;28;20166;-86
2022/06/25 00:32:04;;;;;;;17.07;11.67;;;;;;;19.12;100.00;98874.38;5050555;28;20258;-86
2022/06/25 00:34:30;;;;;;;19.33;12.13;;;;;;;19.00;100.00;98838.47;5050524;28;20172;-86
2022/06/25 00:36:55;;;;;;;16.10;12.23;;;;;;;18.19;100.00;98661.41;5052420;28;20169;-87
2022/06/25 00:39:21;;;;;;;17.53;13.50;;;;;;;19.02;100.00;98824.78;5052193;28;20544;-87
2022/06/25 00:41:46;;;;;;;17.77;13.43;;;;;;;20.02;100.00;98974.56;5051738;28;20196;-86
2022/06/25 00:44:12;;;;;;;17.70;14.23;;;;;;;18.84;100.00;98755.53;5051975;28;20161;-86
2022/06/25 00:46:37;;;;;;;15.37;13.20;;;;;;;17.87;100.00;98593.06;5053961;28;20244;-86
2022/06/25 00:49:03;;;;;;;16.47;12.97;;;;;;;15.97;100.00;98317.09;5055502;28;20176;-85
2022/06/25 00:51:32;;;;;;;15.80;13.00;;;;;;;16.99;100.00;98488.75;5055548;28;20200;-87
2022/06/25 00:54:03;;;;;;;17.37;13.47;;;;;;;17.28;100.00;98615.91;5053925;28;20173;-86
2022/06/25 00:56:32;;;;;;;17.37;13.43;;;;;;;19.48;100.00;98948.88;5055327;28;20203;-86
2022/06/25 00:59:02;;;;;;;15.33;13.00;;;;;;;16.70;100.00;98469.88;5055833;28;20170;-87
2022/06/25 01:01:29;;;;;;;17.33;13.30;;;;;;;17.45;100.00;98609.97;5055753;28;20244;-87
2022/06/25 01:03:54;;;;;;;16.57;12.73;;;;;;;17.75;100.00;98610.94;5055483;28;20242;-87
2022/06/25 01:06:20;;;;;;;17.93;13.30;;;;;;;19.03;100.00;98830.78;5055093;28;20626;-86
2022/06/25 01:08:45;;;;;;;18.37;14.00;;;;;;;18.81;100.00;98758.94;5054476;28;20225;-87
2022/06/25 01:11:11;;;;;;;18.43;14.00;;;;;;;19.52;100.00;98883.00;5054034;28;20209;-88
2022/06/25 01:13:36;;;;;;;17.60;13.40;;;;;;;20.17;100.00;98957.44;5055820;28;20637;-87
2022/06/25 01:16:03;;;;;;;15.93;12.67;;;;;;;19.28;100.00;98792.25;5055632;28;20718;-87
2022/06/25 01:18:29;;;;;;;16.57;12.67;;;;;;;19.02;100.00;98757.22;5053651;28;20196;-88
2022/06/25 01:20:54;;;;;;;15.00;12.17;;;;;;;18.52;100.00;98626.44;5055156;28;20173;-87
2022/06/25 01:23:19;;;;;;;18.43;11.77;;;;;;;18.75;100.00;98678.56;5055347;28;20162;-87
2022/06/25 01:25:45;;;;;;;18.13;11.90;;;;;;;20.39;100.00;98934.28;5055744;28;20257;-87
2022/06/25 01:28:10;;;;;;;18.33;12.87;;;;;;;17.17;100.00;98428.28;5055106;28;20162;-86
2022/06/25 01:30:37;;;;;;;14.83;11.47;;;;;;;20.02;100.00;98943.72;5054689;28;20201;-86
2022/06/25 01:33:02;;;;;;;15.33;11.30;;;;;;;18.45;100.00;98681.97;5053645;28;20169;-86
2022/06/25 01:35:28;;;;;;;15.17;11.50;;;;;;;16.88;100.00;98393.25;5054696;28;20181;-86
2022/06/25 01:37:53;;;;;;;14.33;11.93;;;;;;;16.63;100.00;98434.94;5053481;28;20173;-87
2022/06/25 01:40:19;;;;;;;13.40;10.97;;;;;;;16.85;100.00;98507.44;5054386;28;20173;-87
2022/06/25 01:42:59;;;;;;;17.77;11.77;;;;;;;17.16;100.00;98513.53;5055109;28;20168;-87
2022/06/25 01:45:38;;;;;;;15.40;11.80;;;;;;;19.51;100.00;98927.50;5054852;28;20200;-86
2022/06/25 01:48:05;;;;;;;15.03;10.87;;;;;;;19.72;100.00;98930.91;5055021;28;20169;-88
2022/06/25 01:50:33;;;;;;;14.63;11.37;;;;;;;17.09;100.00;98498.16;5055684;28;20204;-87
2022/06/25 01:52:58;;;;;;;14.87;11.00;;;;;;;17.74;100.00;98616.94;5055632;28;20162;-87
2022/06/25 01:55:24;;;;;;;13.37;10.77;;;;;;;16.09;100.00;98327.38;5055040;28;20299;-87
2022/06/25 01:57:50;;;;;;;13.73;10.80;;;;;;;15.91;100.00;98283.03;5054391;28;20166;-87
2022/06/25 02:00:20;;;;;;;14.70;11.10;;;;;;;17.40;100.00;98580.09;5056578;28;20161;-87
2022/06/25 02:02:46;;;;;;;14.07;11.03;;;;;;;19.45;100.00;98932.66;5053848;28;20204;-87
2022/06/25 02:05:13;;;;;;;13.13;11.20;;;;;;;16.37;100.00;98380.28;5055291;28;20639;-87
2022/06/25 02:07:39;;;;;;;12.40;10.63;;;;;;;19.79;100.00;98932.66;5054756;28;20169;-86
2022/06/25 02:10:06;;;;;;;16.37;10.70;;;;;;;19.64;100.00;98918.97;5056516;28;20177;-87
2022/06/25 02:12:31;;;;;;;13.97;11.27;;;;;;;19.30;100.00;98867.56;5056607;28;20248;-87
2022/06/25 02:14:57;;;;;;;13.67;11.20;;;;;;;18.22;100.00;98715.22;5057127;28;20177;-87
2022/06/25 02:17:22;;;;;;;13.97;11.50;;;;;;;17.76;100.00;98649.38;5056362;28;20244;-87
2022/06/25 02:19:47;;;;;;;16.13;11.27;;;;;;;17.84;100.00;98649.38;5056935;28;20253;-87
2022/06/25 02:22:14;;;;;;;19.00;11.57;;;;;;;17.27;100.00;98516.97;5056768;28;20177;-87
2022/06/25 02:24:44;;;;;;;14.40;11.70;;;;;;;18.25;100.00;98709.25;5056078;28;20200;-87
2022/06/25 02:27:10;;;;;;;14.43;10.63;;;;;;;16.20;100.00;98328.28;5055899;28;20368;-87
2022/06/25 02:29:35;;;;;;;16.03;10.53;;;;;;;19.59;100.00;98941.19;5055613;28;20652;-86
2022/06/25 02:32:01;;;;;;;15.13;11.33;;;;;;;16.49;100.00;98422.06;5054734;28;20338;-87
2022/06/25 02:34:27;;;;;;;18.13;11.00;;;;;;;16.19;100.00;98405.72;5055351;28;20172;-87
2022/06/25 02:36:52;;;;;;;12.90;10.13;;;;;;;18.46;100.00;98832.31;5055896;28;20157;-87
2022/06/25 02:39:18;;;;;;;15.40;10.60;;;;;;;18.58;100.00;98844.34;5055571;28;20169;-87
2022/06/25 02:41:44;;;;;;;15.13;10.60;;;;;;;17.18;100.00;98602.19;5054099;28;20531;-87
2022/06/25 02:44:10;;;;;;;15.00;11.17;;;;;;;19.27;100.00;98961.69;5053897;28;20540;-87
2022/06/25 02:46:35;;;;;;;14.23;10.33;;;;;;;19.20;100.00;98978.75;5053272;28;20176;-87
2022/06/25 02:49:01;;;;;;;13.27;9.73;;;;;;;17.27;100.00;98642.31;5053764;28;20172;-87
2022/06/25 02:51:27;;;;;;;13.67;10.33;;;;;;;15.83;100.00;98421.66;5052467;28;20215;-87
2022/06/25 02:53:52;;;;;;;15.80;10.10;;;;;;;17.11;100.00;98670.34;5055747;28;20208;-88
2022/06/25 02:59:02;;;;;;;14.33;9.17;;;;;;;18.52;100.00;98872.53;5053199;28;20484;-87
2022/06/25 03:01:29;;;;;;;11.20;9.17;;;;;;;19.12;100.00;98970.19;5052077;28;20165;-86
2022/06/25 03:03:56;;;;;;;12.57;9.13;;;;;;;18.88;100.00;98952.16;5052123;28;20165;-85
2022/06/25 03:06:21;;;;;;;12.37;9.70;;;;;;;19.18;100.00;98977.03;5052876;28;20248;-86
2022/06/25 03:08:47;;;;;;;13.30;9.40;;;;;;;17.05;100.00;98618.34;5051766;28;20744;-85
2022/06/25 03:11:14;;;;;;;11.43;9.10;;;;;;;17.88;100.00;98728.78;5053879;28;20724;-87
2022/06/25 03:13:39;;;;;;;14.70;9.20;;;;;;;19.40;100.00;98992.53;5054091;28;20170;-86
2022/06/25 03:16:06;;;;;;;12.77;8.80;;;;;;;16.80;100.00;98530.44;5055709;28;20656;-87
2022/06/25 03:18:32;;;;;;;11.73;9.27;;;;;;;17.95;100.00;98707.47;5055079;28;20177;-87
2022/06/25 03:20:58;;;;;;;14.97;9.77;;;;;;;19.80;100.00;98985.75;5054061;28;20598;-87
2022/06/25 03:23:23;;;;;;;13.00;9.83;;;;;;;19.61;100.00;98966.03;5053260;28;20177;-86
2022/06/25 03:25:49;;;;;;;15.17;9.87;;;;;;;19.90;100.00;99002.00;5054883;28;20169;-87
2022/06/25 03:28:15;;;;;;;13.30;9.30;;;;;;;19.44;100.00;98911.25;5057024;28;20184;-87
2022/06/25 03:30:41;;;;;;;13.33;9.30;;;;;;;19.21;100.00;98861.56;5057615;28;20280;-88
2022/06/25 03:33:07;;;;;;;12.97;9.27;;;;;;;17.32;100.00;98658.53;5055739;28;20208;-86
2022/06/25 03:35:32;;;;;;;13.60;9.10;;;;;;;16.97;100.00;98592.75;5053861;28;20226;-87
2022/06/25 03:37:57;;;;;;;17.33;9.43;;;;;;;16.90;100.00;98569.66;5054017;28;20240;-86
2022/06/25 03:40:23;;;;;;;14.67;9.20;;;;;;;16.89;100.00;98545.78;5051991;28;20215;-84
2022/06/25 03:42:49;;;;;;;13.70;8.93;;;;;;;18.71;100.00;98884.56;5051834;28;20170;-84
2022/06/25 03:45:14;;;;;;;14.07;9.03;;;;;;;19.37;100.00;99018.16;5053517;28;20627;-86
2022/06/25 03:47:40;;;;;;;10.57;8.60;;;;;;;18.87;100.00;98881.19;5054640;28;20203;-86
2022/06/25 03:50:07;;;;;;;13.07;9.00;;;;;;;19.57;100.00;99002.84;5055999;28;20252;-86
2022/06/25 03:52:32;;;;;;;14.53;9.37;;;;;;;18.20;100.00;98737.44;5053802;28;20238;-86
2022/06/25 03:54:58;;;;;;;15.00;9.60;;;;;;;18.51;100.00;98788.81;5055919;28;20193;-87
2022/06/25 03:57:24;;;;;;;14.90;9.33;;;;;;;19.01;100.00;98887.19;5055110;28;20243;-86
2022/06/25 03:59:50;;;;;;;14.13;9.53;;;;;;;17.05;100.00;98567.19;5054149;28;20172;-86
2022/06/25 04:02:16;;;;;;;13.20;9.43;;;;;;;15.83;100.00;98401.25;5054524;28;20178;-86
2022/06/25 04:04:41;;;;;;;12.93;9.17;;;;;;;15.84;100.00;98410.63;5054420;28;20174;-86
2022/06/25 04:07:06;;;;;;;11.97;9.37;;;;;;;17.26;100.00;98648.28;5050997;28;20253;-86
2022/06/25 04:09:32;;;;;;;12.47;9.37;;;;;;;18.86;100.00;98882.06;5051378;28;20216;-87
2022/06/25 04:11:57;;;;;;;13.57;10.00;;;;;;;16.31;100.00;98436.44;5050404;28;20204;-88
2022/06/25 04:14:23;;;;;;;11.13;9.63;;;;;;;19.68;100.00;99001.13;5056220;28;20170;-88
2022/06/25 04:16:49;;;;;;;12.23;9.67;;;;;;;18.15;100.00;98733.16;5058176;28;20170;-89
2022/06/25 04:19:14;;;;;;;13.20;9.80;;;;;;;18.35;100.00;98739.16;5060264;28;20169;-89
2022/06/25 04:21:40;;;;;;;15.53;9.93;;;;;;;17.98;100.00;98646.03;5062264;28;20177;-89
2022/06/25 04:24:05;;;;;;;15.10;9.87;;;;;;;19.03;100.00;98780.31;5066114;28;20177;-88
2022/06/25 04:26:31;;;;;;;13.77;10.07;;;;;;;15.56;100.00;98223.34;5063433;28;20197;-87
2022/06/25 04:29:03;;;;;;;13.10;9.80;;;;;;;16.30;100.00;98305.34;5065649;28;20174;-88
2022/06/25 04:31:33;;;;;;;13.33;10.00;;;;;;;17.02;100.00;98445.28;5063778;28;20288;-88
2022/06/25 04:33:59;;;;;;;14.93;10.30;;;;;;;16.53;100.00;98328.44;5064956;28;20165;-89
2022/06/25 04:36:25;;;;;;;14.77;10.00;;;;;;;17.83;100.00;98541.00;5064296;28;20178;-88
2022/06/25 04:38:51;;;;;;;12.53;10.40;;;;;;;20.63;100.00;98992.47;5066714;28;20170;-88
2022/06/25 04:41:17;;;;;;;12.37;10.20;;;;;;;18.42;100.00;98619.59;5066583;28;20177;-88
2022/06/25 04:43:42;;;;;;;15.53;10.50;;;;;;;16.62;100.00;98295.22;5065254;28;20175;-89
2022/06/25 04:46:08;;;;;;;11.93;9.90;;;;;;;19.84;99.32;98738.25;5067561;28;20192;-88
2022/06/25 04:48:33;;;;;;;12.03;9.70;;;;;;;17.04;96.33;98251.81;5065507;28;20173;-89
2022/06/25 04:50:59;;;;;;;12.27;10.30;;;;;;;18.91;95.06;98558.84;5065833;28;20220;-88
2022/06/25 04:53:25;;;;;;;12.57;10.20;;;;;;;19.22;94.69;98622.06;5065733;28;20638;-88
2022/06/25 04:55:50;;;;;;;11.87;9.77;;;;;;;21.04;91.39;98873.94;5062893;28;20173;-88
2022/06/25 04:58:16;;;;;;;11.37;9.63;;;;;;;18.40;93.07;98441.91;5064705;28;20173;-89
2022/06/25 05:00:41;;;;;;;11.63;9.73;;;;;;;17.97;91.31;98360.03;5063308;28;20188;-88
2022/06/25 05:03:08;;;;;;;13.23;9.53;;;;;;;21.97;91.68;99019.28;5064876;28;20174;-89
2022/06/25 05:05:34;;;;;;;15.40;10.07;;;;;;;19.84;87.66;98562.72;5064740;28;20736;-88
2022/06/25 05:07:59;;;;;;;11.40;9.80;;;;;;;19.97;83.30;98482.97;5064681;28;20298;-88
2022/06/25 05:10:26;;;;;;;11.63;10.00;;;;;;;20.01;81.64;98484.66;5061901;28;20272;-86
2022/06/25 05:15:43;;;;;;;13.03;10.53;;;;;;;22.18;76.55;98779.28;5062508;28;20660;-89
2022/06/25 05:18:10;;;;;;;14.77;10.70;;;;;;;23.36;75.66;98908.41;5060524;28;20196;-88
2022/06/25 05:20:45;;;;;;;14.27;9.90;;;;;;;22.77;72.48;98788.78;5059646;28;20234;-88
2022/06/25 05:23:11;;;;;;;12.97;8.97;;;;;;;22.18;70.04;98675.28;5063270;28;20173;-88
2022/06/25 05:25:37;;;;;;;9.97;8.40;;;;;;;21.96;68.65;98668.72;5060295;28;20187;-89
2022/06/25 05:28:03;;;;;;;11.17;8.23;;;;;;;21.37;68.24;98597.34;5061648;28;20169;-88
2022/06/25 05:30:29;;;;;;;10.67;8.30;;;;;;;21.20;66.97;98553.78;5065069;28;20172;-89
2022/06/25 05:32:55;;;;;;;12.33;8.00;;;;;;;19.71;68.89;98371.91;5064428;28;20181;-87
2022/06/25 05:35:20;;;;;;;8.43;7.50;;;;;;;20.08;66.88;98367.22;5069247;28;20173;-89
2022/06/25 05:37:46;;;;;;;13.07;7.80;;;;;;;21.28;65.11;98500.47;5069256;28;20177;-89
2022/06/25 05:40:12;;;;;;;11.20;7.30;;;;;;;23.30;65.48;98895.56;5069224;28;20173;-87
2022/06/25 05:42:37;;;;;;;11.30;7.87;;;;;;;20.76;65.66;98456.50;5068115;28;20231;-88
2022/06/25 05:45:04;;;;;;;10.13;7.53;;;;;;;21.12;63.73;98481.78;5066357;28;20558;-88
2022/06/25 05:47:29;;;;;;;10.43;7.57;;;;;;;21.83;64.59;98623.34;5066706;28;20177;-88
2022/06/25 05:49:55;;;;;;;10.60;7.83;;;;;;;21.00;65.96;98568.56;5062350;28;20181;-90
2022/06/25 05:52:21;;;;;;;9.50;8.00;;;;;;;22.69;65.13;98770.00;5062817;28;20232;-89
2022/06/25 05:54:48;;;;;;;9.67;7.93;;;;;;;24.88;63.29;99062.78;5065831;28;20591;-89
2022/06/25 05:57:14;;;;;;;9.30;8.30;;;;;;;22.32;61.68;98601.16;5066159;28;20248;-90
2022/06/25 05:59:40;;;;;;;10.17;8.90;;;;;;;22.34;59.95;98511.69;5066488;28;20271;-90
2022/06/25 06:02:06;;;;;;;8.83;7.93;;;;;;;22.47;58.37;98520.91;5065323;28;20165;-88
2022/06/25 06:04:32;;;;;;;11.87;8.27;;;;;;;22.41;60.55;98552.00;5058834;28;20307;-88
2022/06/25 06:06:59;;;;;;;11.67;9.80;;;;;;;22.00;60.05;98436.66;5059582;28;20189;-88
2022/06/25 06:09:32;;;;;;;9.80;8.40;;;;;;;21.97;60.22;98453.94;5068195;28;20217;-89
2022/06/25 06:11:58;;;;;;;16.20;10.70;;;;;;;21.87;58.88;98452.34;5073044;28;20232;-89
2022/06/25 06:14:25;;;;;;;13.87;8.37;;;;;;;22.11;60.22;98537.03;5062250;28;20165;-88
2022/06/25 06:16:50;;;;;;;13.17;9.97;;;;;;;21.87;60.85;98525.38;5060095;28;20168;-89
2022/06/25 06:19:16;;;;;;;15.30;8.73;;;;;;;24.37;60.92;98918.75;5059425;28;20165;-89
2022/06/25 06:21:41;;;;;;;12.87;8.27;;;;;;;22.38;59.52;98549.47;5056962;28;20522;-89
2022/06/25 06:24:07;;;;;;;12.47;8.13;;;;;;;21.08;60.55;98372.03;5057513;28;20242;-89
2022/06/25 06:26:34;;;;;;;9.07;7.90;;;;;;;25.23;59.95;99070.69;5053191;28;20161;-89
2022/06/25 06:28:59;;;;;;;10.60;8.63;;;;;;;23.61;58.92;98695.25;5054930;28;20201;-89
2022/06/25 06:31:24;;;;;;;12.37;7.90;;;;;;;23.28;57.47;98595.13;5053629;28;20221;-90
2022/06/25 06:33:50;;;;;;;12.07;8.67;;;;;;;25.53;57.79;98965.53;5053330;28;20181;-90
2022/06/25 06:36:15;;;;;;;11.47;8.17;;;;;;;22.85;58.60;98561.56;5054922;28;20173;-90
2022/06/25 06:38:41;;;;;;;12.43;8.30;;;;;;;22.52;58.84;98493.34;5052812;28;20166;-90
2022/06/25 06:41:06;;;;;;;11.27;8.67;;;;;;;22.68;59.49;98497.34;5054201;28;20176;-90
2022/06/25 06:43:32;;;;;;;11.87;8.77;;;;;;;23.65;59.88;98704.63;5054614;28;20702;-90
2022/06/25 06:45:57;;;;;;;9.87;8.63;;;;;;;23.85;60.26;98728.34;5061194;28;20170;-90
2022/06/25 06:48:23;;;;;;;10.40;8.83;;;;;;;23.98;60.82;98758.25;5060721;28;20626;-89
2022/06/25 06:50:49;;;;;;;10.43;8.83;;;;;;;23.67;61.20;98705.47;5059489;28;20193;-90
2022/06/25 06:53:14;;;;;;;14.83;8.93;;;;;;;22.59;60.32;98479.44;5061359;28;20207;-90
2022/06/25 06:55:40;;;;;;;9.57;8.33;;;;;;;22.91;60.86;98576.91;5061725;28;20219;-90
2022/06/25 06:58:05;;;;;;;12.73;9.10;;;;;;;24.57;59.26;98756.16;5061951;28;20228;-89
2022/06/25 07:00:31;;;;;;;15.83;13.00;;;;;;;25.36;58.38;98896.78;5063629;28;20183;-89
2022/06/25 07:02:56;;;;;;;15.17;8.93;;;;;;;22.41;58.65;98397.25;5058519;28;20192;-90
2022/06/25 07:05:22;;;;;;;10.13;9.15;;;;;;;22.98;57.57;98420.16;5059220;28;20551;-91
2022/06/25 07:07:47;;;;;;;12.43;8.93;;;;;;;26.89;56.95;99021.72;5064673;28;20249;-90
2022/06/25 07:10:14;;;;;;;11.02;8.27;;;;;;;23.54;56.27;98496.44;5057792;28;20556;-90
2022/06/25 07:12:40;;;;;;;9.18;8.27;;;;;;;23.07;59.50;98538.75;5057291;28;20203;-89
2022/06/25 07:15:06;;;;;;;9.50;8.47;;;;;;;22.23;60.46;98465.47;5056479;28;20622;-86
2022/06/25 07:17:32;;;;;;;10.82;8.60;;;;;;;24.62;58.56;98715.47;5058388;28;20177;-89
2022/06/25 07:19:58;;;;;;;10.88;8.18;;;;;;;25.33;57.37;98864.00;5058945;28;20166;-88
2022/06/25 07:22:23;;;;;;;10.63;8.40;;;;;;;23.12;58.35;98486.13;5063197;28;20653;-89
2022/06/25 07:24:49;;;;;;;10.67;8.57;;;;;;;25.28;56.27;98764.81;5058376;28;20170;-90
2022/06/25 07:27:14;;;;;;;9.10;7.97;;;;;;;26.26;55.02;98941.19;5053732;28;20171;-89
2022/06/25 07:29:40;;;;;;;9.75;7.70;;;;;;;27.27;53.50;99027.56;5054197;28;20169;-90
2022/06/25 07:32:06;;;;;;;10.27;7.20;;;;;;;24.79;52.12;98572.66;5052971;28;20560;-91
2022/06/25 07:34:32;;;;;;;22.15;12.77;;;;;;;24.64;50.44;98560.97;5051230;28;20252;-90
2022/06/25 07:36:57;;;;;;;12.43;8.38;;;;;;;25.23;53.95;98872.91;5051549;28;20703;-88
2022/06/25 07:39:23;;;;;;;9.25;7.53;;;;;;;25.76;53.37;98874.22;5052252;28;20177;-91
2022/06/25 07:41:48;;;;;;;8.52;7.72;;;;;;;24.43;53.03;98662.44;5052519;28;20249;-90
2022/06/25 07:44:14;;;;;;;10.30;7.80;;;;;;;25.20;53.23;98829.78;5052578;28;20159;-91
2022/06/25 07:46:39;;;;;;;12.98;7.57;;;;;;;26.50;51.99;98911.16;5052536;28;20169;-86
2022/06/25 07:49:05;;;;;;;12.27;7.88;;;;;;;24.87;51.20;98589.72;5052281;28;20166;-89
2022/06/25 07:54:14;;;;;;;8.88;7.57;;;;;;;26.15;50.51;98778.91;5053134;28;20173;-89
2022/06/25 07:56:40;;;;;;;15.45;12.60;;;;;;;25.94;49.22;98750.94;5055264;28;20169;-88
2022/06/25 07:59:05;;;;;;;9.02;8.13;;;;;;;25.91;49.21;98668.88;5059166;28;20240;-89
2022/06/25 08:01:31;;;;;;;8.95;7.10;;;;;;;26.54;49.93;98914.47;5061373;28;20183;-88
2022/06/25 08:03:57;;;;;;;8.77;7.18;;;;;;;26.76;48.62;98785.69;5063929;28;20584;-87
2022/06/25 08:06:23;;;;;;;12.10;7.80;;;;;;;26.53;46.88;98731.03;5062461;28;20189;-87
2022/06/25 08:08:48;;;;;;;8.35;6.93;;;;;;;25.57;45.55;98554.09;5060937;28;20223;-87
2022/06/25 08:11:13;;;;;;;7.75;6.95;;;;;;;26.43;44.90;98602.41;5063446;28;20215;-88
2022/06/25 08:13:39;;;;;;;7.47;6.70;;;;;;;27.96;43.74;98817.19;5062564;28;20173;-89
2022/06/25 08:16:05;;;;;;;7.15;6.45;;;;;;;29.59;42.52;99038.75;5064664;28;20515;-85
2022/06/25 08:18:31;;;;;;;8.93;6.88;;;;;;;29.55;43.10;98993.69;5071546;28;20203;-88
2022/06/25 08:20:57;;;;;;;12.43;7.70;;;;;;;26.34;43.90;98518.75;5066906;28;20619;-87
2022/06/25 08:23:22;;;;;;;8.77;6.93;;;;;;;26.71;43.83;98629.16;5059480;28;20165;-87
2022/06/25 08:25:48;;;;;;;9.00;7.32;;;;;;;27.59;43.13;98665.94;5071653;28;20181;-85
2022/06/25 08:28:13;;;;;;;9.23;7.40;;;;;;;27.78;43.34;98742.41;5055186;28;20162;-86
2022/06/25 08:30:41;;;;;;;9.43;7.40;;;;;;;27.94;43.44;98764.38;5055220;28;20230;-84
2022/06/25 08:33:07;;;;;;;8.05;7.25;;;;;;;29.75;43.10;99030.25;5056423;28;20593;-85
2022/06/25 08:35:32;;;;;;;10.30;7.10;;;;;;;28.38;42.98;98720.22;5055478;28;20611;-84
2022/06/25 08:37:57;;;;;;;9.93;7.05;;;;;;;29.32;41.52;98847.66;5055390;28;20536;-84
2022/06/25 08:40:23;;;;;;;7.60;6.63;;;;;;;29.44;42.01;98883.69;5055931;28;20192;-85
2022/06/25 08:42:49;;;;;;;8.20;7.40;;;;;;;29.47;43.97;99003.56;5055064;28;20240;-84
2022/06/25 08:45:16;;;;;;;8.25;7.38;;;;;;;30.21;42.59;99057.16;5055130;28;20228;-84
2022/06/25 08:47:47;;;;;;;7.88;7.07;;;;;;;30.45;42.49;99050.09;5055566;28;20219;-84
2022/06/25 08:50:15;;;;;;;9.60;6.97;;;;;;;30.48;41.97;98995.94;5055897;28;20252;-83
2022/06/25 08:52:49;;;;;;;9.35;7.20;;;;;;;30.19;43.16;99040.72;5052892;28;20202;-83
2022/06/25 08:55:25;;;;;;;8.23;7.20;;;;;;;30.07;43.32;99030.75;5044296;28;20178;-84
2022/06/25 08:57:51;;;;;;;8.95;7.25;;;;;;;30.34;43.20;99045.28;5035387;28;20634;-84
2022/06/25 09:00:16;;;;;;;8.05;7.13;;;;;;;30.55;42.14;99022.63;5034667;28;20169;-86
2022/06/25 09:02:42;;;;;;;8.68;6.88;;;;;;;30.19;42.02;98934.44;5050155;28;20192;-83
2022/06/25 09:05:10;;;;;;;10.32;7.10;;;;;;;30.55;41.80;99025.25;5043926;28;20184;-84
2022/06/25 09:07:36;;;;;;;8.13;6.85;;;;;;;30.98;40.56;98991.13;5032891;28;20178;-83
2022/06/25 09:10:02;;;;;;;8.50;6.90;;;;;;;30.21;41.65;99002.31;5043011;28;20226;-84
2022/06/25 09:12:28;;;;;;;8.38;6.70;;;;;;;29.86;43.31;99031.63;5035351;28;20229;-87
2022/06/25 09:14:53;;;;;;;7.20;6.53;;;;;;;29.38;41.38;98826.53;5037132;28;20269;-85
2022/06/25 09:17:18;;;;;;;9.05;6.85;;;;;;;31.06;40.99;99030.84;5044411;28;20642;-83
2022/06/25 09:19:51;;;;;;;8.20;7.40;;;;;;;30.37;41.45;98948.53;5034974;28;20176;-83
2022/06/25 09:22:23;;;;;;;7.95;7.00;;;;;;;31.22;40.10;99036.22;5034165;28;20235;-82
2022/06/25 09:24:52;;;;;;;9.68;6.57;;;;;;;31.53;40.22;99034.75;5037412;28;20217;-84
2022/06/25 09:27:37;;;;;;;8.35;7.10;;;;;;;31.87;39.84;98997.31;5045286;28;20173;-83
2022/06/25 09:30:16;;;;;;;7.70;7.00;;;;;;;31.77;39.86;99001.31;5052337;28;20172;-83
2022/06/25 09:32:42;;;;;;;8.45;6.78;;;;;;;30.38;40.65;98969.34;5052153;28;20207;-83
2022/06/25 09:35:09;;;;;;;8.80;7.20;;;;;;;31.29;41.40;99033.25;5052353;28;20184;-83
2022/06/25 09:37:34;;;;;;;10.00;7.05;;;;;;;31.23;40.56;99014.38;5050583;28;20683;-83
2022/06/25 09:40:04;;;;;;;9.18;6.80;;;;;;;31.28;40.57;99017.63;5054292;28;20161;-84
2022/06/25 09:42:32;;;;;;;8.05;6.20;;;;;;;31.11;39.71;98992.25;5053636;28;20177;-85
2022/06/25 09:45:05;;;;;;;7.70;7.00;;;;;;;31.11;40.72;99017.53;5053505;28;20199;-84
2022/06/25 09:47:33;;;;;;;7.45;6.57;;;;;;;31.24;39.61;99018.66;5054017;28;20175;-85
2022/06/25 09:50:28;;;;;;;7.78;6.35;;;;;;;30.96;38.54;99009.47;5053596;28;20262;-84
2022/06/25 09:53:01;;;;;;;7.93;5.68;;;;;;;30.67;38.31;98969.84;5051422;28;20206;-84
2022/06/25 09:55:33;;;;;;;10.85;5.80;;;;;;;31.36;37.36;99012.88;5051645;28;20614;-85
2022/06/25 09:58:03;;;;;;;7.95;6.07;;;;;;;30.99;38.43;99025.97;5051502;28;20299;-85
2022/06/25 10:00:30;;;;;;;7.53;6.15;;;;;;;31.28;39.27;99026.34;5048210;28;20184;-86
2022/06/25 10:02:57;;;;;;;11.05;6.78;;;;;;;31.44;38.67;98993.28;5031376;28;20197;-84
2022/06/25 10:05:34;;;;;;;10.63;7.90;;;;;;;30.43;40.29;99024.03;5049740;28;20168;-83
2022/06/25 10:08:01;;;;;;;10.80;6.78;;;;;;;30.80;39.86;98976.22;5050311;28;20224;-84
2022/06/25 10:10:33;;;;;;;8.43;6.63;;;;;;;30.37;40.66;98953.75;5052038;28;20706;-83
2022/06/25 10:13:01;;;;;;;7.20;6.20;;;;;;;29.86;39.87;98786.25;5051457;28;20169;-84
2022/06/25 10:15:27;;;;;;;7.28;6.50;;;;;;;30.38;39.66;98974.56;5039806;28;20307;-86
2022/06/25 10:17:53;;;;;;;8.07;6.18;;;;;;;30.00;40.47;98915.25;5039323;28;20353;-83
2022/06/25 10:20:19;;;;;;;8.10;6.53;;;;;;;30.33;40.40;98965.19;5050747;28;20179;-85
2022/06/25 10:22:48;;;;;;;8.20;6.20;;;;;;;31.16;39.65;99019.03;5050354;28;20192;-84
2022/06/25 10:25:17;;;;;;;7.43;6.53;;;;;;;31.63;39.47;99016.00;5051245;28;20179;-84
2022/06/25 10:27:45;;;;;;;7.07;6.38;;;;;;;31.18;40.65;99013.75;5051776;28;20174;-84
2022/06/25 10:30:12;;;;;;;7.57;6.43;;;;;;;31.44;40.15;99011.59;5057155;28;20246;-83
2022/06/25 10:32:47;;;;;;;7.75;6.95;;;;;;;31.67;40.03;99010.56;5077416;28;20194;-82
2022/06/25 10:35:30;;;;;;;7.85;7.05;;;;;;;31.75;39.37;98997.09;5066653;28;20192;-83
2022/06/25 10:38:07;;;;;;;6.97;6.38;;;;;;;31.09;39.12;99003.69;5061653;28;20173;-84
2022/06/25 10:40:46;;;;;;;8.43;6.80;;;;;;;31.35;38.87;99009.41;5043875;28;20214;-84
2022/06/25 10:43:37;;;;;;;6.82;6.13;;;;;;;31.37;39.32;98998.91;5053865;28;20220;-84
2022/06/25 10:46:36;;;;;;;9.48;6.60;;;;;;;31.72;38.79;99008.56;5052730;28;20177;-84
2022/06/25 10:49:10;;;;;;;9.18;7.22;;;;;;;31.91;38.89;98959.59;5030922;28;20205;-84
2022/06/25 10:51:38;;;;;;;8.63;7.20;;;;;;;32.00;38.56;98992.34;5030900;28;20684;-84
2022/06/25 10:54:05;;;;;;;8.90;7.10;;;;;;;32.59;36.78;98990.19;5031093;28;20737;-84
2022/06/25 10:56:47;;;;;;;12.23;6.85;;;;;;;32.27;35.60;98992.75;5030567;28;20165;-84
2022/06/25 10:59:47;;;;;;;6.70;6.00;;;;;;;32.41;34.40;98982.41;5031084;28;20194;-84
2022/06/25 11:02:23;;;;;;;11.13;6.50;;;;;;;32.06;36.56;98985.03;5011103;28;20205;-84
2022/06/25 11:04:53;;;;;;;7.25;6.38;;;;;;;32.32;37.18;98964.53;5010366;28;20166;-85
2022/06/25 11:07:22;;;;;;;8.57;6.90;;;;;;;32.61;37.24;98980.47;5010706;28;20600;-85
2022/06/25 11:10:02;;;;;;;7.88;7.10;;;;;;;32.56;36.98;98982.50;5010389;28;20276;-84
2022/06/25 11:12:34;;;;;;;6.93;6.20;;;;;;;32.79;37.29;98986.53;4996902;28;20228;-83
2022/06/25 11:15:04;;;;;;;9.75;6.80;;;;;;;32.90;37.90;98978.09;5010684;28;20724;-84
2022/06/25 11:17:30;;;;;;;7.72;6.90;;;;;;;32.68;37.96;98978.38;5010140;28;20182;-80
2022/06/25 11:20:12;;;;;;;9.35;6.75;;;;;;;33.10;36.64;98956.91;5010513;28;20220;-84
2022/06/25 11:22:48;;;;;;;7.72;6.38;;;;;;;33.59;36.37;98968.16;5010118;28;20171;-86
2022/06/25 11:30:42;;;;;;;10.88;6.97;;;;;;;34.01;35.12;98970.94;4989954;28;20249;-86
2022/06/25 11:33:09;;;;;;;8.07;6.53;;;;;;;32.86;35.57;98825.28;4990948;28;20758;-85
2022/06/25 11:35:42;;;;;;;7.18;6.47;;;;;;;33.00;36.57;98961.75;4990638;28;20562;-84
2022/06/25 11:38:17;;;;;;;7.60;6.80;;;;;;;32.62;36.72;98958.56;5011217;28;20185;-85
2022/06/25 11:40:43;;;;;;;7.88;6.70;;;;;;;33.60;35.73;98961.97;5051893;28;20235;-84